createdAt,value
2022-09-24T00:01:29.107Z,3.97
2022-09-24T00:04:02.403Z,4.10
2022-09-24T00:06:34.857Z,5.10
2022-09-24T00:09:01.985Z,4.13
2022-09-24T00:11:29.527Z,4.50
2022-09-24T00:13:58.684Z,4.20
2022-09-24T00:16:28.617Z,4.05
2022-09-24T00:18:55.663Z,3.67
2022-09-24T00:21:25.763Z,4.15
2022-09-24T00:23:55.323Z,3.95
2022-09-24T00:26:41.642Z,4.57
2022-09-24T00:29:10.224Z,3.72
2022-09-24T00:31:37.607Z,4.13
2022-09-24T00:34:04.691Z,4.63
2022-09-24T00:36:31.973Z,4.07
2022-09-24T00:39:00.805Z,4.10
2022-09-24T00:41:35.093Z,4.30
2022-09-24T00:44:40.998Z,4.25
2022-09-24T00:47:33.842Z,4.38
2022-09-24T00:50:19.927Z,3.50
2022-09-24T00:52:52.927Z,4.10
2022-09-24T00:55:22.243Z,3.72
2022-09-24T00:57:52.186Z,4.78
2022-09-24T01:00:19.597Z,4.65
2022-09-24T01:02:50.225Z,4.90
2022-09-24T01:05:18.305Z,5.25
2022-09-24T01:07:48.396Z,4.10
2022-09-24T01:10:37.797Z,5.05
2022-09-24T01:13:26.699Z,4.85
2022-09-24T01:16:25.825Z,5.45
2022-09-24T01:19:20.970Z,4.95
2022-09-24T01:22:07.549Z,5.45
2022-09-24T01:24:40.598Z,4.80
2022-09-24T01:27:52.537Z,5.18
2022-09-24T01:30:19.638Z,5.47
2022-09-24T01:32:56.667Z,5.90
2022-09-24T01:35:36.396Z,5.60
2022-09-24T01:38:14.465Z,5.90
2022-09-24T01:40:43.917Z,5.28
2022-09-24T01:43:12.795Z,5.95
2022-09-24T01:45:40.795Z,6.32
2022-09-24T01:48:08.912Z,5.72
2022-09-24T01:50:48.874Z,6.55
2022-09-24T01:53:27.367Z,5.40
2022-09-24T01:56:01.468Z,5.22
2022-09-24T01:58:53.238Z,5.50
2022-09-24T02:01:31.098Z,5.30
2022-09-24T02:04:06.435Z,5.00
2022-09-24T02:06:36.379Z,7.03
2022-09-24T02:09:03.480Z,6.28
2022-09-24T02:11:34.132Z,5.53
2022-09-24T02:14:14.404Z,6.47
2022-09-24T02:16:47.162Z,6.32
2022-09-24T02:19:28.323Z,6.18
2022-09-24T02:21:55.618Z,5.70
2022-09-24T02:24:34.559Z,5.47
2022-09-24T02:27:01.688Z,5.60
2022-09-24T02:29:28.700Z,6.30
2022-09-24T02:31:58.155Z,5.53
2022-09-24T02:34:36.826Z,5.30
2022-09-24T02:37:10.489Z,6.35
2022-09-24T02:39:37.515Z,6.07
2022-09-24T02:42:06.523Z,6.38
2022-09-24T02:44:34.569Z,6.10
2022-09-24T02:47:01.819Z,6.15
2022-09-24T02:49:29.174Z,6.15
2022-09-24T02:51:56.925Z,6.85
2022-09-24T02:54:25.248Z,5.28
2022-09-24T02:56:52.561Z,5.82
2022-09-24T02:59:19.607Z,5.72
2022-09-24T03:01:47.163Z,6.00
2022-09-24T03:04:15.806Z,6.18
2022-09-24T03:06:43.321Z,6.40
2022-09-24T03:09:13.099Z,5.30
2022-09-24T03:11:40.319Z,6.35
2022-09-24T03:14:07.469Z,5.43
2022-09-24T03:16:34.762Z,6.53
2022-09-24T03:19:01.795Z,5.65
2022-09-24T03:21:28.792Z,5.60
2022-09-24T03:23:55.728Z,5.90
2022-09-24T03:26:22.826Z,6.03
2022-09-24T03:28:49.764Z,5.47
2022-09-24T03:31:16.997Z,5.03
2022-09-24T03:33:46.623Z,5.53
2022-09-24T03:36:23.265Z,5.68
2022-09-24T03:38:53.061Z,5.47
2022-09-24T03:41:20.390Z,5.40
2022-09-24T03:43:49.051Z,5.65
2022-09-24T03:46:17.360Z,5.15
2022-09-24T03:48:47.480Z,4.80
2022-09-24T03:51:18.916Z,5.70
2022-09-24T03:53:46.673Z,5.93
2022-09-24T03:56:14.111Z,5.30
2022-09-24T03:58:42.135Z,5.55
2022-09-24T04:01:13.144Z,5.68
2022-09-24T04:03:41.403Z,5.80
2022-09-24T04:06:08.572Z,6.25
2022-09-24T04:08:35.756Z,5.38
2022-09-24T04:11:02.956Z,6.32
2022-09-24T04:13:30.260Z,6.05
2022-09-24T04:16:02.721Z,6.03
2022-09-24T04:18:29.803Z,5.28
2022-09-24T04:21:02.134Z,5.30
2022-09-24T04:23:31.929Z,5.90
2022-09-24T04:26:03.191Z,5.60
2022-09-24T04:28:31.599Z,5.72
2022-09-24T04:30:59.397Z,5.95
2022-09-24T04:33:26.942Z,4.88
2022-09-24T04:35:53.982Z,5.70
2022-09-24T04:38:21.481Z,5.35
2022-09-24T04:40:48.959Z,6.10
2022-09-24T04:43:16.192Z,5.70
2022-09-24T04:45:45.195Z,5.15
2022-09-24T04:48:12.970Z,6.00
2022-09-24T04:50:45.487Z,5.05
2022-09-24T04:53:13.373Z,5.25
2022-09-24T04:55:41.900Z,5.45
2022-09-24T04:58:09.959Z,5.10
2022-09-24T05:00:37.209Z,5.45
2022-09-24T05:03:04.846Z,4.90
2022-09-24T05:05:34.069Z,5.07
2022-09-24T05:08:02.064Z,6.05
2022-09-24T05:10:33.365Z,5.55
2022-09-24T05:13:01.158Z,6.30
2022-09-24T05:15:28.210Z,5.60
2022-09-24T05:17:55.175Z,5.78
2022-09-24T05:20:22.168Z,5.10
2022-09-24T05:22:49.813Z,5.68
2022-09-24T05:25:19.559Z,5.47
2022-09-24T05:27:48.201Z,6.35
2022-09-24T05:30:16.293Z,5.28
2022-09-24T05:32:43.339Z,6.10
2022-09-24T05:35:10.771Z,6.60
2022-09-24T05:37:38.421Z,6.15
2022-09-24T05:40:25.922Z,6.30
2022-09-24T05:42:59.388Z,6.80
2022-09-24T05:45:26.345Z,5.60
2022-09-24T05:47:53.474Z,6.88
2022-09-24T05:50:21.030Z,6.00
2022-09-24T05:52:48.341Z,5.85
2022-09-24T05:55:15.318Z,5.90
2022-09-24T05:57:42.459Z,5.88
2022-09-24T06:00:09.896Z,6.47
2022-09-24T06:02:36.957Z,6.25
2022-09-24T06:05:04.118Z,6.63
2022-09-24T06:07:31.238Z,6.32
2022-09-24T06:10:01.035Z,6.15
2022-09-24T06:12:28.146Z,6.40
2022-09-24T06:14:55.158Z,5.82
2022-09-24T06:17:22.252Z,5.82
2022-09-24T06:19:49.287Z,5.95
2022-09-24T06:22:16.313Z,7.07
2022-09-24T06:24:43.274Z,5.65
2022-09-24T06:27:10.250Z,6.45
2022-09-24T06:29:37.189Z,6.80
2022-09-24T06:32:04.506Z,6.20
2022-09-24T06:34:31.467Z,6.43
2022-09-24T06:36:58.391Z,6.13
2022-09-24T06:39:26.219Z,6.10
2022-09-24T06:41:53.852Z,5.82
2022-09-24T06:44:21.173Z,5.88
2022-09-24T06:46:48.380Z,6.00
2022-09-24T06:49:15.518Z,6.10
2022-09-24T06:51:42.654Z,5.28
2022-09-24T06:54:09.684Z,6.45
2022-09-24T06:56:36.632Z,5.60
2022-09-24T06:59:03.642Z,5.70
2022-09-24T07:01:30.770Z,6.20
2022-09-24T07:03:58.078Z,5.53
2022-09-24T07:06:25.075Z,5.38
2022-09-24T07:08:52.253Z,5.85
2022-09-24T07:11:19.233Z,5.93
2022-09-24T07:13:46.250Z,6.03
2022-09-24T07:16:13.232Z,5.40
2022-09-24T07:18:40.158Z,5.30
2022-09-24T07:21:07.180Z,6.43
2022-09-24T07:23:34.155Z,5.75
2022-09-24T07:26:01.204Z,5.28
2022-09-24T07:28:28.182Z,6.18
2022-09-24T07:30:59.646Z,6.07
2022-09-24T07:33:26.804Z,6.07
2022-09-24T07:35:53.768Z,6.25
2022-09-24T07:38:20.846Z,5.60
2022-09-24T07:40:47.978Z,6.57
2022-09-24T07:43:15.191Z,6.40
2022-09-24T07:45:43.418Z,6.72
2022-09-24T07:48:11.149Z,5.60
2022-09-24T07:50:42.914Z,6.15
2022-09-24T07:53:13.049Z,6.15
2022-09-24T07:55:41.470Z,6.90
2022-09-24T07:58:11.961Z,6.35
2022-09-24T08:00:39.131Z,7.40
2022-09-24T08:03:06.480Z,6.30
2022-09-24T08:05:33.957Z,6.57
2022-09-24T08:08:01.037Z,6.05
2022-09-24T08:10:28.802Z,5.80
2022-09-24T08:12:59.014Z,7.30
2022-09-24T08:15:26.275Z,6.72
2022-09-24T08:17:53.420Z,5.88
2022-09-24T08:20:23.642Z,6.20
2022-09-24T08:22:50.619Z,6.15
2022-09-24T08:25:17.639Z,7.00
2022-09-24T08:27:44.763Z,6.90
2022-09-24T08:30:12.504Z,6.32
2022-09-24T08:32:39.577Z,6.25
2022-09-24T08:35:08.443Z,6.85
2022-09-24T08:37:35.452Z,6.80
2022-09-24T08:40:03.751Z,6.13
2022-09-24T08:42:44.233Z,5.93
2022-09-24T08:45:30.247Z,6.85
2022-09-24T08:48:24.266Z,7.00
2022-09-24T08:51:01.048Z,8.13
2022-09-24T08:53:35.168Z,6.00
2022-09-24T08:56:04.703Z,6.70
2022-09-24T08:58:46.802Z,6.30
2022-09-24T09:01:24.824Z,6.53
2022-09-24T09:04:12.141Z,7.28
2022-09-24T09:06:51.030Z,6.70
2022-09-24T09:09:20.063Z,7.05
2022-09-24T09:11:51.712Z,7.40
2022-09-24T09:14:25.335Z,7.03
2022-09-24T09:17:04.466Z,7.18
2022-09-24T09:19:36.516Z,6.30
2022-09-24T09:22:16.080Z,7.43
2022-09-24T09:24:51.258Z,7.57
2022-09-24T09:27:19.852Z,7.25
2022-09-24T09:29:51.719Z,6.88
2022-09-24T09:32:27.716Z,7.18
2022-09-24T09:35:16.510Z,6.70
2022-09-24T09:38:06.471Z,6.38
2022-09-24T09:40:46.215Z,6.70
2022-09-24T09:43:15.028Z,7.63
2022-09-24T09:46:27.978Z,7.17
2022-09-24T09:49:00.202Z,7.37
2022-09-24T09:51:30.750Z,6.63
2022-09-24T09:54:02.877Z,6.53
2022-09-24T09:56:36.384Z,6.30
2022-09-24T09:59:18.418Z,7.93
2022-09-24T10:01:56.197Z,6.90
2022-09-24T10:04:29.269Z,7.40
2022-09-24T10:07:07.159Z,6.70
2022-09-24T10:09:34.306Z,7.07
2022-09-24T10:12:17.064Z,7.20
2022-09-24T10:14:45.192Z,6.87
2022-09-24T10:17:18.573Z,6.73
2022-09-24T10:19:51.046Z,6.80
2022-09-24T10:22:28.259Z,6.40
2022-09-24T10:24:58.351Z,5.10
2022-09-24T10:27:28.044Z,6.10
2022-09-24T10:30:15.555Z,7.10
2022-09-24T10:32:42.692Z,6.87
2022-09-24T10:35:29.595Z,7.47
2022-09-24T10:37:59.100Z,7.30
2022-09-24T10:40:40.403Z,7.57
2022-09-24T10:43:07.916Z,7.23
2022-09-24T10:46:03.446Z,7.20
2022-09-24T10:48:45.680Z,6.30
2022-09-24T10:51:18.711Z,6.40
2022-09-24T10:54:28.868Z,8.13
2022-09-24T10:56:57.551Z,7.60
2022-09-24T10:59:36.089Z,7.57
2022-09-24T11:02:17.587Z,6.80
2022-09-24T11:05:09.157Z,7.37
2022-09-24T11:08:06.971Z,6.67
2022-09-24T11:11:01.656Z,11.67
2022-09-24T11:13:56.083Z,8.23
2022-09-24T11:16:51.884Z,7.87
2022-09-24T11:19:45.459Z,7.83
2022-09-24T11:22:16.777Z,7.90
2022-09-24T11:24:55.522Z,7.23
2022-09-24T11:27:25.202Z,7.47
2022-09-24T11:30:03.283Z,7.20
2022-09-24T11:32:43.015Z,7.53
2022-09-24T11:35:16.057Z,6.90
2022-09-24T11:38:00.013Z,7.50
2022-09-24T11:40:45.038Z,6.80
2022-09-24T11:43:49.593Z,7.17
2022-09-24T11:46:19.365Z,6.83
2022-09-24T11:48:52.220Z,7.20
2022-09-24T11:51:26.536Z,7.30
2022-09-24T11:54:17.599Z,7.30
2022-09-24T11:56:49.616Z,6.90
2022-09-24T11:59:45.823Z,7.40
2022-09-24T12:02:18.210Z,7.33
2022-09-24T12:04:54.705Z,7.57
2022-09-24T12:07:40.373Z,7.57
2022-09-24T12:10:46.312Z,6.57
2022-09-24T12:13:18.238Z,7.90
2022-09-24T12:15:47.623Z,6.13
2022-09-24T12:18:25.942Z,6.03
2022-09-24T12:20:58.929Z,6.20
2022-09-24T12:23:30.045Z,7.20
2022-09-24T12:25:59.795Z,6.80
2022-09-24T12:28:53.751Z,6.83
2022-09-24T12:31:48.576Z,6.20
2022-09-24T12:34:42.801Z,5.77
2022-09-24T12:37:17.355Z,5.50
2022-09-24T12:39:57.956Z,6.23
2022-09-24T12:42:32.715Z,6.37
2022-09-24T12:45:00.943Z,5.63
2022-09-24T12:47:31.942Z,5.47
2022-09-24T12:50:03.482Z,6.57
2022-09-24T12:52:41.656Z,6.30
2022-09-24T12:55:25.143Z,7.10
2022-09-24T12:57:52.550Z,6.17
2022-09-24T13:00:45.913Z,6.80
2022-09-24T13:03:34.270Z,6.27
2022-09-24T13:06:01.881Z,7.03
2022-09-24T13:08:41.476Z,6.87
2022-09-24T13:11:38.102Z,6.93
2022-09-24T13:14:14.151Z,5.70
2022-09-24T13:16:43.466Z,5.63
2022-09-24T13:19:29.116Z,6.30
2022-09-24T13:22:00.693Z,5.97
2022-09-24T13:24:33.196Z,5.73
2022-09-24T13:27:38.062Z,6.50
2022-09-24T13:30:07.440Z,6.13
2022-09-24T13:32:40.381Z,5.40
2022-09-24T13:35:22.535Z,5.20
2022-09-24T13:38:23.114Z,5.70
2022-09-24T13:40:58.098Z,5.90
2022-09-24T13:43:36.127Z,5.50
2022-09-24T13:46:08.600Z,6.00
2022-09-24T13:48:35.590Z,5.90
2022-09-24T13:51:05.328Z,5.00
2022-09-24T13:53:45.454Z,6.10
2022-09-24T13:56:15.574Z,6.43
2022-09-24T13:58:44.079Z,6.43
2022-09-24T14:01:25.253Z,10.00
2022-09-24T14:03:56.010Z,6.53
2022-09-24T14:06:53.802Z,6.67
2022-09-24T14:09:33.120Z,5.70
2022-09-24T14:12:16.943Z,5.70
2022-09-24T14:14:47.583Z,5.83
2022-09-24T14:17:15.883Z,5.90
2022-09-24T14:19:43.583Z,5.30
2022-09-24T14:22:30.109Z,6.20
2022-09-24T14:25:19.681Z,4.90
2022-09-24T14:27:51.082Z,6.20
2022-09-24T14:30:27.251Z,4.60
2022-09-24T14:32:58.428Z,5.37
2022-09-24T14:35:39.998Z,5.57
2022-09-24T14:38:17.309Z,5.40
2022-09-24T14:41:00.539Z,5.37
2022-09-24T14:43:42.592Z,4.80
2022-09-24T14:46:38.083Z,4.50
2022-09-24T14:49:07.299Z,5.60
2022-09-24T14:51:35.654Z,5.40
2022-09-24T14:54:19.918Z,5.13
2022-09-24T14:56:46.978Z,4.67
2022-09-24T14:59:30.971Z,5.17
2022-09-24T15:02:14.680Z,4.90
2022-09-24T15:04:46.306Z,4.13
2022-09-24T15:07:19.086Z,5.30
2022-09-24T15:09:51.854Z,4.10
2022-09-24T15:12:30.938Z,4.90
2022-09-24T15:15:03.796Z,4.70
2022-09-24T15:17:35.725Z,4.33
2022-09-24T15:20:04.822Z,4.03
2022-09-24T15:22:31.851Z,5.47
2022-09-24T15:25:02.042Z,4.00
2022-09-24T15:27:31.696Z,3.87
2022-09-24T15:30:00.337Z,4.03
2022-09-24T15:32:31.220Z,4.33
2022-09-24T15:34:58.606Z,4.13
2022-09-24T15:37:27.645Z,3.93
2022-09-24T15:40:06.719Z,4.53
2022-09-24T15:42:33.958Z,5.33
2022-09-24T15:45:01.064Z,4.60
2022-09-24T15:47:28.376Z,4.57
2022-09-24T15:49:55.364Z,5.30
2022-09-24T15:52:26.597Z,4.70
2022-09-24T15:54:59.004Z,6.90
2022-09-24T15:57:26.732Z,4.70
2022-09-24T15:59:54.145Z,5.07
2022-09-24T16:02:29.204Z,5.00
2022-09-24T16:05:00.267Z,4.73
2022-09-24T16:07:30.570Z,5.10
2022-09-24T16:09:57.477Z,5.30
2022-09-24T16:12:28.301Z,5.70
2022-09-24T16:14:59.290Z,5.70
2022-09-24T16:17:30.277Z,6.43
2022-09-24T16:19:57.266Z,5.90
2022-09-24T16:22:24.340Z,5.90
2022-09-24T16:24:51.342Z,6.10
2022-09-24T16:27:18.404Z,5.80
2022-09-24T16:29:45.364Z,4.90
2022-09-24T16:32:14.006Z,5.50
2022-09-24T16:34:41.271Z,5.20
2022-09-24T16:37:09.672Z,5.27
2022-09-24T16:39:36.785Z,5.43
2022-09-24T16:42:04.067Z,5.63
2022-09-24T16:44:31.067Z,5.17
2022-09-24T16:46:58.104Z,6.37
2022-09-24T16:49:25.606Z,5.13
2022-09-24T16:51:52.608Z,6.73
2022-09-24T16:54:20.461Z,7.13
2022-09-24T16:56:52.444Z,5.33
2022-09-24T16:59:19.593Z,6.00
2022-09-24T17:01:46.727Z,5.53
2022-09-24T17:04:13.862Z,7.77
2022-09-24T17:06:41.358Z,7.40
2022-09-24T17:09:28.339Z,5.80
2022-09-24T17:11:57.026Z,6.90
2022-09-24T17:14:25.324Z,7.30
2022-09-24T17:16:52.281Z,9.10
2022-09-24T17:19:19.291Z,6.50
2022-09-24T17:21:47.075Z,6.37
2022-09-24T17:24:17.831Z,6.45
2022-09-24T17:26:48.443Z,6.40
2022-09-24T17:29:15.628Z,6.50
2022-09-24T17:31:42.647Z,6.03
2022-09-24T17:34:12.763Z,5.60
2022-09-24T17:36:39.825Z,5.95
2022-09-24T17:39:07.459Z,6.03
2022-09-24T17:41:36.004Z,6.68
2022-09-24T17:44:03.032Z,6.22
2022-09-24T17:46:32.218Z,6.60
2022-09-24T17:49:00.627Z,6.05
2022-09-24T17:51:36.744Z,7.65
2022-09-24T17:54:07.287Z,8.07
2022-09-24T17:56:39.217Z,9.23
2022-09-24T17:59:08.246Z,8.70
2022-09-24T18:01:37.606Z,9.30
2022-09-24T18:04:17.106Z,7.60
2022-09-24T18:06:45.697Z,8.70
2022-09-24T18:09:14.024Z,10.77
2022-09-24T18:11:46.684Z,8.40
2022-09-24T18:14:19.389Z,7.43
2022-09-24T18:16:47.129Z,8.63
2022-09-24T18:19:17.223Z,9.35
2022-09-24T18:21:45.645Z,9.63
2022-09-24T18:24:14.727Z,7.75
2022-09-24T18:26:41.872Z,9.00
2022-09-24T18:29:16.586Z,8.02
2022-09-24T18:31:45.004Z,7.70
2022-09-24T18:34:15.217Z,7.30
2022-09-24T18:36:44.045Z,8.25
2022-09-24T18:39:13.912Z,7.75
2022-09-24T18:41:42.403Z,7.30
2022-09-24T18:44:11.311Z,7.50
2022-09-24T18:46:39.715Z,6.55
2022-09-24T18:49:07.614Z,6.85
2022-09-24T18:51:37.828Z,7.35
2022-09-24T18:54:13.121Z,7.43
2022-09-24T18:56:40.971Z,6.70
2022-09-24T18:59:12.998Z,7.60
2022-09-24T19:01:42.838Z,7.40
2022-09-24T19:04:11.484Z,7.15
2022-09-24T19:06:42.107Z,7.38
2022-09-24T19:09:10.727Z,7.90
2022-09-24T19:11:38.830Z,7.40
2022-09-24T19:14:05.925Z,7.60
2022-09-24T19:16:33.739Z,7.88
2022-09-24T19:19:01.992Z,8.18
2022-09-24T19:21:29.278Z,7.38
2022-09-24T19:23:57.864Z,8.25
2022-09-24T19:26:32.865Z,7.40
2022-09-24T19:29:00.883Z,7.82
2022-09-24T19:31:31.626Z,8.05
2022-09-24T19:34:03.245Z,7.80
2022-09-24T19:36:31.612Z,10.05
2022-09-24T19:38:58.571Z,10.70
2022-09-24T19:41:26.806Z,10.35
2022-09-24T19:43:57.389Z,11.00
2022-09-24T19:46:26.728Z,10.27
2022-09-24T19:48:56.424Z,10.88
2022-09-24T19:51:29.386Z,10.95
2022-09-24T19:53:58.964Z,10.65
2022-09-24T19:56:26.671Z,11.15
2022-09-24T19:58:56.111Z,9.80
2022-09-24T20:01:28.206Z,9.10
2022-09-24T20:03:56.631Z,9.23
2022-09-24T20:06:28.872Z,8.38
2022-09-24T20:08:57.445Z,9.90
2022-09-24T20:11:25.871Z,6.95
2022-09-24T20:13:56.012Z,7.78
2022-09-24T20:16:27.508Z,6.95
2022-09-24T20:18:58.038Z,7.95
2022-09-24T20:21:31.925Z,7.22
2022-09-24T20:23:59.547Z,7.15
2022-09-24T20:26:46.180Z,8.50
2022-09-24T20:29:15.787Z,8.40
2022-09-24T20:31:52.127Z,9.20
2022-09-24T20:34:21.942Z,8.80
2022-09-24T20:36:49.364Z,11.10
2022-09-24T20:39:17.219Z,11.43
2022-09-24T20:41:44.286Z,11.85
2022-09-24T20:44:11.349Z,12.73
2022-09-24T20:46:39.419Z,10.40
2022-09-24T20:49:06.675Z,11.00
2022-09-24T20:51:33.870Z,10.65
2022-09-24T20:54:01.678Z,11.10
2022-09-24T20:56:30.878Z,9.90
2022-09-24T20:58:58.852Z,9.13
2022-09-24T21:01:26.050Z,9.60
2022-09-24T21:03:53.340Z,9.05
2022-09-24T21:06:23.889Z,8.07
2022-09-24T21:08:52.092Z,8.98
2022-09-24T21:11:22.339Z,9.90
2022-09-24T21:13:51.956Z,9.13
2022-09-24T21:16:21.698Z,8.95
2022-09-24T21:18:50.319Z,9.30
2022-09-24T21:21:22.796Z,10.23
2022-09-24T21:23:52.915Z,10.27
2022-09-24T21:26:38.793Z,11.05
2022-09-24T21:29:13.233Z,11.85
2022-09-24T21:31:42.194Z,10.40
2022-09-24T21:34:09.262Z,11.05
2022-09-24T21:36:43.708Z,10.13
2022-09-24T21:39:23.453Z,10.77
2022-09-24T21:41:55.157Z,10.80
2022-09-24T21:44:22.444Z,11.13
2022-09-24T21:46:51.024Z,10.23
2022-09-24T21:49:18.783Z,8.07
2022-09-24T21:51:46.945Z,10.15
2022-09-24T21:54:17.360Z,10.82
2022-09-24T21:56:46.004Z,8.27
2022-09-24T21:59:32.499Z,8.07
2022-09-24T22:01:59.756Z,8.95
2022-09-24T22:04:27.849Z,9.32
2022-09-24T22:06:54.878Z,10.25
2022-09-24T22:09:22.497Z,9.07
2022-09-24T22:11:51.941Z,8.93
2022-09-24T22:14:18.959Z,9.55
2022-09-24T22:16:46.084Z,10.75
2022-09-24T22:19:13.294Z,11.40
2022-09-24T22:21:40.733Z,11.88
2022-09-24T22:24:07.934Z,12.75
2022-09-24T22:26:35.918Z,12.05
2022-09-24T22:29:06.567Z,10.63
2022-09-24T22:31:33.809Z,12.75
2022-09-24T22:34:36.429Z,13.20
2022-09-24T22:37:07.100Z,11.15
2022-09-24T22:39:35.301Z,11.25
2022-09-24T22:42:02.414Z,11.90
2022-09-24T22:44:29.416Z,10.90
2022-09-24T22:46:56.501Z,11.13
2022-09-24T22:49:23.613Z,11.23
2022-09-24T22:51:50.675Z,10.48
2022-09-24T22:54:17.790Z,10.98
2022-09-24T22:56:44.755Z,12.30
2022-09-24T22:59:11.902Z,11.50
2022-09-24T23:01:44.245Z,12.27
2022-09-24T23:04:15.460Z,10.70
2022-09-24T23:06:43.849Z,11.25
2022-09-24T23:09:11.703Z,11.60
2022-09-24T23:11:38.746Z,11.73
2022-09-24T23:14:14.518Z,11.95
2022-09-24T23:16:45.214Z,11.32
2022-09-24T23:19:16.263Z,10.50
2022-09-24T23:21:43.664Z,11.90
2022-09-24T23:24:16.842Z,9.70
2022-09-24T23:26:44.849Z,10.70
2022-09-24T23:29:13.321Z,10.75
2022-09-24T23:31:40.696Z,11.10
2022-09-24T23:34:08.157Z,10.05
2022-09-24T23:36:36.078Z,10.95
2022-09-24T23:39:04.643Z,10.15
2022-09-24T23:41:32.024Z,10.30
2022-09-24T23:44:00.312Z,9.30
2022-09-24T23:46:27.675Z,9.68
2022-09-24T23:48:56.195Z,9.70
2022-09-24T23:51:23.756Z,10.88
2022-09-24T23:53:50.967Z,9.50
2022-09-24T23:56:19.135Z,9.90
2022-09-24T23:58:46.742Z,9.32
